Time,TemperatureF,DewpointF,PressureIn,WindDirection,WindDirectionDegrees,WindSpeedMPH,WindSpeedGustMPH,Humidity,HourlyPrecipIn,Conditions,Clouds,dailyrainin,SoftwareType,DateUTC
2013-02-22 00:00:00,49.0,29.1,30.10,North,0,3.0,5.0,46,0.00,,,0.00,Weather View 32 v70,2013-02-22 05:00:00,
2013-02-22 00:05:00,49.0,29.1,30.09,ENE,68,6.0,6.0,46,0.00,,,0.00,Weather View 32 v70,2013-02-22 05:05:00,
2013-02-22 00:10:00,49.0,28.5,30.09,ENE,68,7.0,9.0,45,0.00,,,0.00,Weather View 32 v70,2013-02-22 05:10:00,
2013-02-22 00:15:00,49.0,29.1,30.08,ENE,68,6.0,9.0,46,0.00,,,0.00,Weather View 32 v70,2013-02-22 05:15:00,
2013-02-22 00:20:00,49.0,29.6,30.05,ENE,68,5.0,13.0,47,0.00,,,0.00,Weather View 32 v70,2013-02-22 05:20:00,
2013-02-22 00:25:00,49.0,28.0,30.07,ENE,68,6.0,14.0,44,0.00,,,0.00,Weather View 32 v70,2013-02-22 05:25:00,
2013-02-22 00:30:00,49.0,28.0,30.07,North,0,7.0,16.0,44,0.00,,,0.00,Weather View 32 v70,2013-02-22 05:30:00,
2013-02-22 00:35:00,49.0,27.4,30.06,ENE,68,4.0,16.0,43,0.00,,,0.00,Weather View 32 v70,2013-02-22 05:35:00,
2013-02-22 00:40:00,49.0,29.1,30.06,East,90,9.0,16.0,46,0.00,,,0.00,Weather View 32 v70,2013-02-22 05:40:00,
2013-02-22 00:45:00,48.0,28.2,30.06,ENE,68,8.0,16.0,46,0.00,,,0.00,Weather View 32 v70,2013-02-22 05:45:00,
2013-02-22 00:50:00,48.0,27.6,30.07,ENE,68,6.0,16.0,45,0.00,,,0.00,Weather View 32 v70,2013-02-22 05:50:00,
2013-02-22 00:55:00,48.0,27.6,30.07,ENE,68,7.0,16.0,45,0.00,,,0.00,Weather View 32 v70,2013-02-22 05:55:00,
2013-02-22 01:00:00,48.0,26.5,30.06,North,0,8.0,16.0,43,0.00,,,0.00,Weather View 32 v70,2013-02-22 06:00:00,
2013-02-22 01:06:00,48.0,26.5,30.07,East,90,6.0,16.0,43,0.00,,,0.00,Weather View 32 v70,2013-02-22 06:06:00,
2013-02-22 01:11:00,48.0,26.5,30.07,ENE,68,8.0,16.0,43,0.00,,,0.00,Weather View 32 v70,2013-02-22 06:11:00,
2013-02-22 01:16:00,48.0,26.5,30.07,ENE,68,9.0,16.0,43,0.00,,,0.00,Weather View 32 v70,2013-02-22 06:16:00,
2013-02-22 01:21:00,48.0,26.0,30.06,ENE,68,5.0,16.0,42,0.00,,,0.00,Weather View 32 v70,2013-02-22 06:21:00,
2013-02-22 01:26:00,48.0,26.0,30.06,ENE,68,6.0,16.0,42,0.00,,,0.00,Weather View 32 v70,2013-02-22 06:26:00,
2013-02-22 01:31:00,48.0,26.0,30.06,North,0,3.0,14.0,42,0.00,,,0.00,Weather View 32 v70,2013-02-22 06:31:00,
2013-02-22 01:36:00,48.0,26.0,30.08,East,90,6.0,14.0,42,0.00,,,0.00,Weather View 32 v70,2013-02-22 06:36:00,
2013-02-22 01:41:00,48.0,26.5,30.09,North,0,3.0,14.0,43,0.00,,,0.00,Weather View 32 v70,2013-02-22 06:41:00,
2013-02-22 01:46:00,48.0,26.5,30.09,ENE,68,6.0,14.0,43,0.00,,,0.00,Weather View 32 v70,2013-02-22 06:46:00,
2013-02-22 01:51:00,48.0,27.1,30.08,ENE,68,8.0,14.0,44,0.00,,,0.00,Weather View 32 v70,2013-02-22 06:51:00,
2013-02-22 01:56:00,48.0,27.6,30.09,North,0,3.0,14.0,45,0.00,,,0.00,Weather View 32 v70,2013-02-22 06:56:00,
2013-02-22 02:01:00,47.0,27.3,30.10,ENE,68,6.0,14.0,46,0.00,,,0.00,Weather View 32 v70,2013-02-22 07:01:00,
2013-02-22 02:06:00,47.0,29.3,30.12,ENE,68,7.0,14.0,50,0.00,,,0.00,Weather View 32 v70,2013-02-22 07:06:00,
2013-02-22 02:11:00,46.0,29.8,30.14,ENE,68,2.0,14.0,53,0.00,,,0.00,Weather View 32 v70,2013-02-22 07:11:00,
2013-02-22 02:16:00,46.0,31.6,30.14,North,0,4.0,14.0,57,0.00,,,0.00,Weather View 32 v70,2013-02-22 07:16:00,
2013-02-22 02:21:00,46.0,33.3,30.14,North,0,4.0,14.0,61,0.00,,,0.00,Weather View 32 v70,2013-02-22 07:21:00,
2013-02-22 02:26:00,45.0,33.5,30.14,North,0,5.0,14.0,64,0.00,,,0.00,Weather View 32 v70,2013-02-22 07:26:00,
2013-02-22 02:31:00,45.0,34.3,30.13,ENE,68,6.0,14.0,66,0.00,,,0.00,Weather View 32 v70,2013-02-22 07:31:00,
2013-02-22 02:36:00,45.0,34.7,30.14,North,0,4.0,12.0,67,0.00,,,0.00,Weather View 32 v70,2013-02-22 07:36:00,
2013-02-22 02:41:00,45.0,35.1,30.13,ENE,68,3.0,12.0,68,0.00,,,0.00,Weather View 32 v70,2013-02-22 07:41:00,
2013-02-22 02:46:00,45.0,35.8,30.13,North,0,6.0,12.0,70,0.00,,,0.00,Weather View 32 v70,2013-02-22 07:46:00,
2013-02-22 02:51:00,44.0,35.2,30.12,ENE,68,5.0,11.0,71,0.00,,,0.00,Weather View 32 v70,2013-02-22 07:51:00,
2013-02-22 02:56:00,44.0,35.9,30.11,North,0,6.0,11.0,73,0.00,,,0.00,Weather View 32 v70,2013-02-22 07:56:00,
2013-02-22 03:01:00,44.0,36.6,30.11,ENE,68,5.0,11.0,75,0.00,,,0.00,Weather View 32 v70,2013-02-22 08:01:00,
2013-02-22 03:06:00,43.0,36.6,30.09,ENE,68,6.0,11.0,78,0.00,,,0.00,Weather View 32 v70,2013-02-22 08:06:00,
2013-02-22 03:11:00,42.0,36.3,30.09,North,0,6.0,14.0,80,0.00,,,0.01,Weather View 32 v70,2013-02-22 08:11:00,
2013-02-22 03:16:00,42.0,37.2,30.08,ENE,68,5.0,14.0,83,0.01,,,0.01,Weather View 32 v70,2013-02-22 08:16:00,
2013-02-22 03:21:00,42.0,38.1,30.08,ENE,68,3.0,14.0,86,0.01,,,0.01,Weather View 32 v70,2013-02-22 08:21:00,
2013-02-22 03:26:00,41.0,37.4,30.08,ENE,68,3.0,14.0,87,0.01,,,0.01,Weather View 32 v70,2013-02-22 08:26:00,
2013-02-22 03:31:00,41.0,37.7,30.08,East,90,4.0,14.0,88,0.01,,,0.01,Weather View 32 v70,2013-02-22 08:31:00,
2013-02-22 03:36:00,41.0,38.0,30.08,ENE,68,5.0,14.0,89,0.02,,,0.02,Weather View 32 v70,2013-02-22 08:36:00,
2013-02-22 03:41:00,41.0,38.3,30.08,East,90,3.0,14.0,90,0.02,,,0.02,Weather View 32 v70,2013-02-22 08:41:00,
2013-02-22 03:46:00,40.0,37.6,30.07,East,90,2.0,14.0,91,0.00,,,0.02,Weather View 32 v70,2013-02-22 08:46:00,
2013-02-22 03:51:00,40.0,37.9,30.07,East,90,6.0,14.0,92,0.03,,,0.03,Weather View 32 v70,2013-02-22 08:51:00,
2013-02-22 03:57:00,40.0,38.1,30.06,East,90,10.0,14.0,93,0.04,,,0.04,Weather View 32 v70,2013-02-22 08:57:00,
2013-02-22 04:02:00,40.0,38.4,30.06,East,90,6.0,14.0,94,0.04,,,0.04,Weather View 32 v70,2013-02-22 09:02:00,
2013-02-22 04:07:00,40.0,38.7,30.07,ENE,68,3.0,14.0,95,0.04,,,0.04,Weather View 32 v70,2013-02-22 09:07:00,
2013-02-22 04:12:00,40.0,38.7,30.07,ENE,68,5.0,11.0,95,0.04,,,0.05,Weather View 32 v70,2013-02-22 09:12:00,
2013-02-22 04:17:00,40.0,39.0,30.07,East,90,4.0,11.0,96,0.04,,,0.05,Weather View 32 v70,2013-02-22 09:17:00,
2013-02-22 04:22:00,40.0,39.0,30.07,East,90,3.0,11.0,96,0.05,,,0.06,Weather View 32 v70,2013-02-22 09:22:00,
2013-02-22 04:27:00,40.0,39.2,30.06,ENE,68,5.0,11.0,97,0.05,,,0.06,Weather View 32 v70,2013-02-22 09:27:00,
2013-02-22 04:32:00,40.0,39.2,30.06,ENE,68,5.0,11.0,97,0.06,,,0.07,Weather View 32 v70,2013-02-22 09:32:00,
2013-02-22 04:37:00,40.0,39.5,30.06,ENE,68,5.0,11.0,98,0.06,,,0.08,Weather View 32 v70,2013-02-22 09:37:00,
2013-02-22 04:42:00,40.0,39.5,30.07,East,90,7.0,11.0,98,0.07,,,0.09,Weather View 32 v70,2013-02-22 09:42:00,
2013-02-22 04:47:00,40.0,39.5,30.06,SSE,158,3.0,11.0,98,0.07,,,0.09,Weather View 32 v70,2013-02-22 09:47:00,
2013-02-22 04:52:00,40.0,39.7,30.06,East,90,3.0,11.0,99,0.07,,,0.10,Weather View 32 v70,2013-02-22 09:52:00,
2013-02-22 04:57:00,40.0,39.7,30.06,East,90,2.0,11.0,99,0.06,,,0.10,Weather View 32 v70,2013-02-22 09:57:00,
2013-02-22 05:02:00,40.0,39.7,30.06,ENE,68,3.0,11.0,99,0.07,,,0.11,Weather View 32 v70,2013-02-22 10:02:00,
2013-02-22 05:07:00,40.0,39.7,30.07,ENE,68,1.0,11.0,99,0.07,,,0.11,Weather View 32 v70,2013-02-22 10:07:00,
2013-02-22 05:12:00,40.0,40.0,30.08,ENE,68,2.0,11.0,100,0.06,,,0.11,Weather View 32 v70,2013-02-22 10:12:00,
2013-02-22 05:17:00,40.0,40.0,30.09,East,90,2.0,11.0,100,0.07,,,0.12,Weather View 32 v70,2013-02-22 10:17:00,
2013-02-22 05:22:00,40.0,40.0,30.09,ENE,68,3.0,11.0,100,0.06,,,0.12,Weather View 32 v70,2013-02-22 10:22:00,
2013-02-22 05:27:00,40.0,40.0,30.08,East,90,3.0,11.0,100,0.07,,,0.13,Weather View 32 v70,2013-02-22 10:27:00,
2013-02-22 05:32:00,40.0,40.0,30.09,ENE,68,3.0,11.0,100,0.06,,,0.13,Weather View 32 v70,2013-02-22 10:32:00,
2013-02-22 05:37:00,40.0,40.0,30.09,East,90,2.0,11.0,100,0.06,,,0.14,Weather View 32 v70,2013-02-22 10:37:00,
2013-02-22 05:42:00,40.0,40.0,30.09,East,90,2.0,11.0,100,0.05,,,0.14,Weather View 32 v70,2013-02-22 10:42:00,
2013-02-22 05:47:00,40.0,40.0,30.09,East,90,3.0,9.0,100,0.05,,,0.14,Weather View 32 v70,2013-02-22 10:47:00,
2013-02-22 05:52:00,40.0,40.0,30.09,ENE,68,3.0,8.0,100,0.05,,,0.15,Weather View 32 v70,2013-02-22 10:52:00,
2013-02-22 05:57:00,40.0,40.0,30.09,East,90,2.0,8.0,100,0.05,,,0.15,Weather View 32 v70,2013-02-22 10:57:00,
2013-02-22 06:02:00,40.0,40.0,30.09,East,90,3.0,7.0,100,0.05,,,0.16,Weather View 32 v70,2013-02-22 11:02:00,
2013-02-22 06:07:00,40.0,40.0,30.09,ENE,68,3.0,6.0,100,0.05,,,0.16,Weather View 32 v70,2013-02-22 11:07:00,
2013-02-22 06:12:00,40.0,40.0,30.09,ENE,68,2.0,6.0,100,0.05,,,0.16,Weather View 32 v70,2013-02-22 11:12:00,
2013-02-22 06:17:00,40.0,40.0,30.09,East,90,3.0,6.0,100,0.04,,,0.16,Weather View 32 v70,2013-02-22 11:17:00,
2013-02-22 06:22:00,39.0,39.0,30.10,ENE,68,1.0,6.0,100,0.04,,,0.16,Weather View 32 v70,2013-02-22 11:22:00,
2013-02-22 06:28:00,40.0,40.0,30.09,East,90,1.0,6.0,100,0.03,,,0.16,Weather View 32 v70,2013-02-22 11:28:00,
2013-02-22 06:33:00,40.0,40.0,30.09,ENE,68,2.0,6.0,100,0.03,,,0.16,Weather View 32 v70,2013-02-22 11:33:00,
2013-02-22 06:38:00,40.0,40.0,30.09,ENE,68,3.0,6.0,100,0.02,,,0.16,Weather View 32 v70,2013-02-22 11:38:00,
2013-02-22 06:43:00,40.0,40.0,30.09,ENE,68,1.0,6.0,100,0.02,,,0.16,Weather View 32 v70,2013-02-22 11:43:00,
2013-02-22 06:48:00,39.0,39.0,30.10,ENE,68,3.0,6.0,100,0.02,,,0.16,Weather View 32 v70,2013-02-22 11:48:00,
2013-02-22 06:53:00,39.0,39.0,30.10,ENE,68,1.0,6.0,100,0.01,,,0.16,Weather View 32 v70,2013-02-22 11:53:00,
2013-02-22 06:58:00,40.0,40.0,30.10,ENE,68,2.0,6.0,100,0.02,,,0.17,Weather View 32 v70,2013-02-22 11:58:00,
2013-02-22 07:03:00,40.0,40.0,30.10,ENE,68,3.0,5.0,100,0.01,,,0.17,Weather View 32 v70,2013-02-22 12:03:00,
2013-02-22 07:08:00,39.0,39.0,30.09,ENE,68,5.0,6.0,100,0.01,,,0.17,Weather View 32 v70,2013-02-22 12:08:00,
2013-02-22 07:13:00,39.0,39.0,30.10,ENE,68,1.0,6.0,100,0.01,,,0.17,Weather View 32 v70,2013-02-22 12:13:00,
2013-02-22 07:18:00,39.0,39.0,30.11,North,0,2.0,6.0,100,0.01,,,0.17,Weather View 32 v70,2013-02-22 12:18:00,
2013-02-22 07:23:00,39.0,39.0,30.11,North,0,3.0,6.0,100,0.01,,,0.17,Weather View 32 v70,2013-02-22 12:23:00,
2013-02-22 07:28:00,39.0,39.0,30.11,North,0,3.0,6.0,100,0.01,,,0.17,Weather View 32 v70,2013-02-22 12:28:00,
2013-02-22 07:33:00,39.0,39.0,30.11,ENE,68,3.0,6.0,100,0.01,,,0.17,Weather View 32 v70,2013-02-22 12:33:00,
2013-02-22 07:38:00,39.0,39.0,30.11,ENE,68,4.0,6.0,100,0.01,,,0.17,Weather View 32 v70,2013-02-22 12:38:00,
2013-02-22 07:43:00,39.0,39.0,30.11,East,90,3.0,6.0,100,0.01,,,0.17,Weather View 32 v70,2013-02-22 12:43:00,
2013-02-22 07:48:00,39.0,39.0,30.10,North,0,3.0,8.0,100,0.01,,,0.17,Weather View 32 v70,2013-02-22 12:48:00,
2013-02-22 07:53:00,39.0,39.0,30.10,ENE,68,5.0,11.0,100,0.01,,,0.17,Weather View 32 v70,2013-02-22 12:53:00,
2013-02-22 07:58:00,39.0,39.0,30.11,East,90,4.0,11.0,100,0.00,,,0.17,Weather View 32 v70,2013-02-22 12:58:00,
2013-02-22 08:03:00,39.0,39.0,30.10,ENE,68,2.0,11.0,100,0.00,,,0.17,Weather View 32 v70,2013-02-22 13:03:00,
2013-02-22 08:08:00,39.0,39.0,30.10,ENE,68,5.0,11.0,100,0.00,,,0.17,Weather View 32 v70,2013-02-22 13:08:00,
2013-02-22 08:13:00,39.0,39.0,30.11,ENE,68,4.0,11.0,100,0.00,,,0.17,Weather View 32 v70,2013-02-22 13:13:00,
2013-02-22 08:18:00,39.0,39.0,30.12,North,0,5.0,11.0,100,0.00,,,0.17,Weather View 32 v70,2013-02-22 13:18:00,
2013-02-22 08:23:00,39.0,39.0,30.11,East,90,8.0,11.0,100,0.00,,,0.17,Weather View 32 v70,2013-02-22 13:23:00,
2013-02-22 08:28:00,39.0,39.0,30.12,North,0,4.0,11.0,100,0.00,,,0.17,Weather View 32 v70,2013-02-22 13:28:00,
2013-02-22 08:33:00,39.0,39.0,30.12,ENE,68,4.0,11.0,100,0.00,,,0.17,Weather View 32 v70,2013-02-22 13:33:00,
2013-02-22 08:38:00,39.0,39.0,30.11,ENE,68,7.0,12.0,100,0.00,,,0.17,Weather View 32 v70,2013-02-22 13:38:00,
2013-02-22 08:43:00,39.0,39.0,30.11,ENE,68,8.0,12.0,100,0.00,,,0.17,Weather View 32 v70,2013-02-22 13:43:00,
2013-02-22 08:48:00,39.0,39.0,30.11,ENE,68,6.0,12.0,100,0.00,,,0.17,Weather View 32 v70,2013-02-22 13:48:00,
2013-02-22 08:53:00,39.0,39.0,30.12,East,90,4.0,12.0,100,0.00,,,0.17,Weather View 32 v70,2013-02-22 13:53:00,
2013-02-22 08:59:00,39.0,39.0,30.12,ENE,68,5.0,12.0,100,0.00,,,0.17,Weather View 32 v70,2013-02-22 13:59:00,
2013-02-22 09:04:00,39.0,39.0,30.12,ENE,68,8.0,12.0,100,0.00,,,0.17,Weather View 32 v70,2013-02-22 14:04:00,
2013-02-22 09:09:00,39.0,39.0,30.12,ENE,68,3.0,12.0,100,0.00,,,0.17,Weather View 32 v70,2013-02-22 14:09:00,
2013-02-22 09:14:00,39.0,39.0,30.12,East,90,2.0,12.0,100,0.00,,,0.17,Weather View 32 v70,2013-02-22 14:14:00,
2013-02-22 09:19:00,39.0,39.0,30.12,ENE,68,2.0,12.0,100,0.00,,,0.17,Weather View 32 v70,2013-02-22 14:19:00,
2013-02-22 09:24:00,39.0,39.0,30.12,ENE,68,7.0,12.0,100,0.00,,,0.17,Weather View 32 v70,2013-02-22 14:24:00,
2013-02-22 09:29:00,39.0,39.0,30.12,ENE,68,3.0,12.0,100,0.00,,,0.17,Weather View 32 v70,2013-02-22 14:29:00,
2013-02-22 09:34:00,39.0,39.0,30.12,ENE,68,3.0,12.0,100,0.00,,,0.17,Weather View 32 v70,2013-02-22 14:34:00,
2013-02-22 09:39:00,39.0,39.0,30.12,ENE,68,5.0,10.0,100,0.00,,,0.17,Weather View 32 v70,2013-02-22 14:39:00,
2013-02-22 09:44:00,39.0,39.0,30.12,North,0,5.0,10.0,100,0.00,,,0.17,Weather View 32 v70,2013-02-22 14:44:00,
2013-02-22 09:49:00,39.0,39.0,30.12,ENE,68,3.0,10.0,100,0.00,,,0.17,Weather View 32 v70,2013-02-22 14:49:00,
2013-02-22 09:54:00,39.0,39.0,30.11,ENE,68,3.0,10.0,100,0.00,,,0.17,Weather View 32 v70,2013-02-22 14:54:00,
2013-02-22 09:59:00,39.0,39.0,30.12,ENE,68,4.0,10.0,100,0.00,,,0.17,Weather View 32 v70,2013-02-22 14:59:00,
2013-02-22 10:04:00,39.0,39.0,30.11,ENE,68,6.0,10.0,100,0.00,,,0.17,Weather View 32 v70,2013-02-22 15:04:00,
2013-02-22 10:09:00,39.0,39.0,30.12,North,0,4.0,10.0,100,0.00,,,0.17,Weather View 32 v70,2013-02-22 15:09:00,
2013-02-22 10:14:00,39.0,39.0,30.12,ENE,68,2.0,10.0,100,0.00,,,0.17,Weather View 32 v70,2013-02-22 15:14:00,
2013-02-22 10:19:00,39.0,39.0,30.12,ENE,68,1.0,10.0,100,0.00,,,0.17,Weather View 32 v70,2013-02-22 15:19:00,
2013-02-22 10:24:00,39.0,39.0,30.12,ENE,68,2.0,10.0,100,0.00,,,0.17,Weather View 32 v70,2013-02-22 15:24:00,
2013-02-22 10:29:00,39.0,39.0,30.12,ENE,68,3.0,10.0,100,0.00,,,0.17,Weather View 32 v70,2013-02-22 15:29:00,
2013-02-22 10:34:00,39.0,39.0,30.12,ENE,68,1.0,8.0,100,0.00,,,0.17,Weather View 32 v70,2013-02-22 15:34:00,
2013-02-22 10:39:00,39.0,39.0,30.12,ENE,68,3.0,8.0,100,0.00,,,0.17,Weather View 32 v70,2013-02-22 15:39:00,
2013-02-22 10:44:00,39.0,39.0,30.12,ENE,68,5.0,8.0,100,0.00,,,0.17,Weather View 32 v70,2013-02-22 15:44:00,
2013-02-22 10:49:00,39.0,38.7,30.13,ENE,68,2.0,8.0,99,0.00,,,0.17,Weather View 32 v70,2013-02-22 15:49:00,
2013-02-22 10:54:00,39.0,38.7,30.13,ENE,68,5.0,8.0,99,0.00,,,0.17,Weather View 32 v70,2013-02-22 15:54:00,
2013-02-22 10:59:00,39.0,38.7,30.12,ENE,68,3.0,8.0,99,0.00,,,0.17,Weather View 32 v70,2013-02-22 15:59:00,
2013-02-22 11:04:00,40.0,39.5,30.11,ENE,68,4.0,8.0,98,0.00,,,0.17,Weather View 32 v70,2013-02-22 16:04:00,
2013-02-22 11:09:00,40.0,39.5,30.11,ENE,68,6.0,9.0,98,0.00,,,0.17,Weather View 32 v70,2013-02-22 16:09:00,
2013-02-22 11:14:00,40.0,39.5,30.11,East,90,3.0,10.0,98,0.00,,,0.17,Weather View 32 v70,2013-02-22 16:14:00,
2013-02-22 11:19:00,40.0,39.5,30.11,ENE,68,3.0,10.0,98,0.00,,,0.17,Weather View 32 v70,2013-02-22 16:19:00,
2013-02-22 11:24:00,40.0,39.5,30.11,ENE,68,4.0,10.0,98,0.00,,,0.17,Weather View 32 v70,2013-02-22 16:24:00,
2013-02-22 11:29:00,40.0,39.2,30.11,North,0,5.0,10.0,97,0.00,,,0.17,Weather View 32 v70,2013-02-22 16:29:00,
2013-02-22 11:34:00,40.0,39.2,30.11,ENE,68,5.0,10.0,97,0.00,,,0.17,Weather View 32 v70,2013-02-22 16:34:00,
2013-02-22 11:39:00,39.0,38.0,30.13,ENE,68,5.0,10.0,96,0.00,,,0.17,Weather View 32 v70,2013-02-22 16:39:00,
2013-02-22 11:44:00,39.0,38.0,30.12,ENE,68,6.0,10.0,96,0.00,,,0.17,Weather View 32 v70,2013-02-22 16:44:00,
2013-02-22 11:49:00,39.0,38.2,30.11,ENE,68,4.0,10.0,97,0.01,,,0.18,Weather View 32 v70,2013-02-22 16:49:00,
2013-02-22 11:54:00,39.0,38.5,30.11,North,0,4.0,10.0,98,-0.17,,,0.19,Weather View 32 v70,2013-02-22 16:54:00,
2013-02-22 11:59:00,39.0,38.5,30.11,ENE,68,6.0,10.0,98,0.02,,,0.19,Weather View 32 v70,2013-02-22 16:59:00,
2013-02-22 12:04:00,39.0,38.7,30.11,ENE,68,5.0,11.0,99,0.03,,,0.20,Weather View 32 v70,2013-02-22 17:04:00,
2013-02-22 12:09:00,39.0,38.7,30.10,ENE,68,3.0,11.0,99,0.03,,,0.20,Weather View 32 v70,2013-02-22 17:09:00,
2013-02-22 12:14:00,39.0,39.0,30.10,ENE,68,3.0,11.0,100,0.03,,,0.20,Weather View 32 v70,2013-02-22 17:14:00,
2013-02-22 12:19:00,39.0,39.0,30.10,North,0,4.0,11.0,100,0.03,,,0.20,Weather View 32 v70,2013-02-22 17:19:00,
2013-02-22 12:24:00,39.0,39.0,30.10,North,0,1.0,11.0,100,0.03,,,0.20,Weather View 32 v70,2013-02-22 17:24:00,
2013-02-22 12:30:00,39.0,39.0,30.10,East,90,2.0,11.0,100,0.03,,,0.20,Weather View 32 v70,2013-02-22 17:30:00,
2013-02-22 12:35:00,39.0,39.0,30.09,ENE,68,3.0,11.0,100,0.03,,,0.20,Weather View 32 v70,2013-02-22 17:35:00,
2013-02-22 12:40:00,39.0,39.0,30.09,East,90,3.0,11.0,100,0.03,,,0.20,Weather View 32 v70,2013-02-22 17:40:00,
2013-02-22 12:44:00,39.0,39.0,30.08,ENE,68,5.0,11.0,100,0.03,,,0.20,Weather View 32 v70,2013-02-22 17:44:00,
2013-02-22 12:50:00,39.0,39.0,30.08,ENE,68,6.0,11.0,100,0.02,,,0.20,Weather View 32 v70,2013-02-22 17:50:00,
2013-02-22 12:55:00,39.0,39.0,30.07,ENE,68,3.0,11.0,100,0.01,,,0.20,Weather View 32 v70,2013-02-22 17:55:00,
2013-02-22 13:00:00,39.0,39.0,30.07,East,90,6.0,11.0,100,0.01,,,0.20,Weather View 32 v70,2013-02-22 18:00:00,
2013-02-22 13:05:00,39.0,39.0,30.07,ENE,68,3.0,10.0,100,0.00,,,0.20,Weather View 32 v70,2013-02-22 18:05:00,
2013-02-22 13:10:00,39.0,39.0,30.06,East,90,1.0,10.0,100,0.00,,,0.20,Weather View 32 v70,2013-02-22 18:10:00,
2013-02-22 13:15:00,39.0,39.0,30.06,ENE,68,6.0,10.0,100,0.01,,,0.21,Weather View 32 v70,2013-02-22 18:15:00,
2013-02-22 13:20:00,39.0,39.0,30.06,North,0,5.0,10.0,100,0.01,,,0.21,Weather View 32 v70,2013-02-22 18:20:00,
2013-02-22 13:25:00,39.0,39.0,30.05,ENE,68,7.0,10.0,100,0.01,,,0.21,Weather View 32 v70,2013-02-22 18:25:00,
2013-02-22 13:30:00,39.0,39.0,30.05,ENE,68,6.0,10.0,100,0.01,,,0.21,Weather View 32 v70,2013-02-22 18:30:00,
2013-02-22 13:35:00,39.0,39.0,30.05,East,90,3.0,10.0,100,0.01,,,0.21,Weather View 32 v70,2013-02-22 18:35:00,
2013-02-22 13:40:00,39.0,39.0,30.05,North,0,2.0,10.0,100,0.01,,,0.21,Weather View 32 v70,2013-02-22 18:40:00,
2013-02-22 13:45:00,39.0,39.0,30.06,ENE,68,2.0,10.0,100,0.01,,,0.21,Weather View 32 v70,2013-02-22 18:45:00,
2013-02-22 13:50:00,39.0,39.0,30.05,ENE,68,3.0,10.0,100,0.01,,,0.21,Weather View 32 v70,2013-02-22 18:50:00,
2013-02-22 13:55:00,39.0,39.0,30.05,North,0,3.0,10.0,100,0.01,,,0.21,Weather View 32 v70,2013-02-22 18:55:00,
2013-02-22 14:00:00,39.0,39.0,30.05,North,0,4.0,10.0,100,0.01,,,0.21,Weather View 32 v70,2013-02-22 19:00:00,
2013-02-22 14:05:00,39.0,39.0,30.06,ENE,68,3.0,10.0,100,0.01,,,0.21,Weather View 32 v70,2013-02-22 19:05:00,
2013-02-22 14:10:00,39.0,39.0,30.06,ENE,68,3.0,10.0,100,0.01,,,0.21,Weather View 32 v70,2013-02-22 19:10:00,
2013-02-22 14:15:00,39.0,39.0,30.05,ENE,68,4.0,10.0,100,0.00,,,0.21,Weather View 32 v70,2013-02-22 19:15:00,
2013-02-22 14:20:00,39.0,39.0,30.05,North,0,3.0,8.0,100,0.00,,,0.21,Weather View 32 v70,2013-02-22 19:20:00,
2013-02-22 14:25:00,38.0,38.0,30.06,ENE,68,3.0,8.0,100,0.01,,,0.22,Weather View 32 v70,2013-02-22 19:25:00,
2013-02-22 14:30:00,39.0,39.0,30.05,North,0,4.0,8.0,100,0.01,,,0.22,Weather View 32 v70,2013-02-22 19:30:00,
2013-02-22 14:35:00,39.0,39.0,30.06,North,0,3.0,8.0,100,0.01,,,0.22,Weather View 32 v70,2013-02-22 19:35:00,
2013-02-22 14:40:00,39.0,39.0,30.05,North,0,4.0,8.0,100,0.01,,,0.22,Weather View 32 v70,2013-02-22 19:40:00,
2013-02-22 14:45:00,39.0,39.0,30.05,North,0,3.0,8.0,100,0.01,,,0.22,Weather View 32 v70,2013-02-22 19:45:00,
2013-02-22 14:50:00,39.0,39.0,30.05,North,0,3.0,8.0,100,0.01,,,0.22,Weather View 32 v70,2013-02-22 19:50:00,
2013-02-22 14:55:00,39.0,39.0,30.04,ENE,68,3.0,8.0,100,0.01,,,0.22,Weather View 32 v70,2013-02-22 19:55:00,
2013-02-22 15:00:00,39.0,39.0,30.04,ENE,68,3.0,8.0,100,0.01,,,0.22,Weather View 32 v70,2013-02-22 20:00:00,
2013-02-22 15:05:00,39.0,39.0,30.04,East,90,0.0,8.0,100,0.01,,,0.22,Weather View 32 v70,2013-02-22 20:05:00,
2013-02-22 15:10:00,39.0,39.0,30.04,North,0,1.0,8.0,100,0.01,,,0.22,Weather View 32 v70,2013-02-22 20:10:00,
2013-02-22 15:15:00,39.0,39.0,30.05,North,0,2.0,8.0,100,0.01,,,0.22,Weather View 32 v70,2013-02-22 20:15:00,
2013-02-22 15:20:00,39.0,39.0,30.05,ENE,68,3.0,8.0,100,0.01,,,0.22,Weather View 32 v70,2013-02-22 20:20:00,
2013-02-22 15:25:00,39.0,39.0,30.04,ENE,68,4.0,8.0,100,0.00,,,0.23,Weather View 32 v70,2013-02-22 20:25:00,
2013-02-22 15:30:00,39.0,39.0,30.05,North,0,3.0,8.0,100,0.01,,,0.23,Weather View 32 v70,2013-02-22 20:30:00,
2013-02-22 15:35:00,39.0,39.0,30.04,ENE,68,4.0,8.0,100,0.01,,,0.23,Weather View 32 v70,2013-02-22 20:35:00,
2013-02-22 15:40:00,39.0,39.0,30.04,ENE,68,4.0,8.0,100,0.01,,,0.23,Weather View 32 v70,2013-02-22 20:40:00,
2013-02-22 15:45:00,39.0,39.0,30.05,North,0,3.0,7.0,100,0.01,,,0.23,Weather View 32 v70,2013-02-22 20:45:00,
2013-02-22 15:50:00,39.0,39.0,30.05,North,0,3.0,7.0,100,0.01,,,0.23,Weather View 32 v70,2013-02-22 20:50:00,
2013-02-22 15:55:00,39.0,39.0,30.05,ENE,68,2.0,7.0,100,0.01,,,0.23,Weather View 32 v70,2013-02-22 20:55:00,
2013-02-22 16:00:00,39.0,39.0,30.04,ENE,68,3.0,7.0,100,0.01,,,0.23,Weather View 32 v70,2013-02-22 21:00:00,
2013-02-22 16:05:00,39.0,39.0,30.04,North,0,5.0,8.0,100,0.01,,,0.23,Weather View 32 v70,2013-02-22 21:05:00,
2013-02-22 16:10:00,39.0,39.0,30.04,ENE,68,5.0,8.0,100,0.01,,,0.23,Weather View 32 v70,2013-02-22 21:10:00,
2013-02-22 16:15:00,39.0,39.0,30.04,ENE,68,3.0,8.0,100,0.02,,,0.24,Weather View 32 v70,2013-02-22 21:15:00,
2013-02-22 16:20:00,39.0,39.0,30.03,North,0,5.0,11.0,100,0.02,,,0.24,Weather View 32 v70,2013-02-22 21:20:00,
2013-02-22 16:25:00,39.0,39.0,30.03,ENE,68,5.0,11.0,100,0.02,,,0.24,Weather View 32 v70,2013-02-22 21:25:00,
2013-02-22 16:30:00,39.0,39.0,30.03,ENE,68,4.0,11.0,100,0.01,,,0.24,Weather View 32 v70,2013-02-22 21:30:00,
2013-02-22 16:35:00,39.0,39.0,30.04,ENE,68,3.0,11.0,100,0.01,,,0.24,Weather View 32 v70,2013-02-22 21:35:00,
2013-02-22 16:40:00,39.0,39.0,30.03,ENE,68,3.0,11.0,100,0.01,,,0.24,Weather View 32 v70,2013-02-22 21:40:00,
2013-02-22 16:45:00,39.0,39.0,30.03,ENE,68,3.0,11.0,100,0.01,,,0.24,Weather View 32 v70,2013-02-22 21:45:00,
2013-02-22 16:50:00,39.0,39.0,30.03,ENE,68,3.0,11.0,100,0.01,,,0.24,Weather View 32 v70,2013-02-22 21:50:00,
2013-02-22 16:55:00,39.0,39.0,30.03,ENE,68,5.0,11.0,100,0.01,,,0.24,Weather View 32 v70,2013-02-22 21:55:00,
2013-02-22 17:00:00,39.0,39.0,30.03,ENE,68,6.0,11.0,100,0.01,,,0.24,Weather View 32 v70,2013-02-22 22:00:00,
2013-02-22 17:05:00,39.0,39.0,30.02,ENE,68,5.0,11.0,100,0.01,,,0.24,Weather View 32 v70,2013-02-22 22:05:00,
2013-02-22 17:10:00,39.0,39.0,30.02,North,0,2.0,11.0,100,0.01,,,0.24,Weather View 32 v70,2013-02-22 22:10:00,
2013-02-22 17:15:00,39.0,39.0,30.03,ENE,68,3.0,11.0,100,0.00,,,0.24,Weather View 32 v70,2013-02-22 22:15:00,
2013-02-22 17:20:00,39.0,39.0,30.03,ENE,68,3.0,10.0,100,0.00,,,0.24,Weather View 32 v70,2013-02-22 22:20:00,
2013-02-22 17:25:00,39.0,39.0,30.03,ENE,68,2.0,9.0,100,0.00,,,0.24,Weather View 32 v70,2013-02-22 22:25:00,
2013-02-22 17:30:00,39.0,39.0,30.03,ENE,68,4.0,9.0,100,0.00,,,0.24,Weather View 32 v70,2013-02-22 22:30:00,
2013-02-22 17:35:00,39.0,39.0,30.02,ENE,68,7.0,9.0,100,0.00,,,0.24,Weather View 32 v70,2013-02-22 22:35:00,
2013-02-22 17:40:00,39.0,39.0,30.02,ENE,68,3.0,9.0,100,0.00,,,0.25,Weather View 32 v70,2013-02-22 22:40:00,
2013-02-22 17:45:00,39.0,39.0,30.02,ENE,68,2.0,9.0,100,0.01,,,0.25,Weather View 32 v70,2013-02-22 22:45:00,
2013-02-22 17:50:00,39.0,39.0,30.02,East,90,6.0,9.0,100,0.01,,,0.25,Weather View 32 v70,2013-02-22 22:50:00,
2013-02-22 17:55:00,39.0,39.0,30.02,ENE,68,4.0,10.0,100,0.01,,,0.25,Weather View 32 v70,2013-02-22 22:55:00,
2013-02-22 18:00:00,39.0,39.0,30.02,ENE,68,4.0,10.0,100,0.01,,,0.25,Weather View 32 v70,2013-02-22 23:00:00,
2013-02-22 18:05:00,39.0,39.0,30.01,ENE,68,3.0,10.0,100,0.01,,,0.25,Weather View 32 v70,2013-02-22 23:05:00,
2013-02-22 18:10:00,39.0,39.0,30.01,East,90,5.0,10.0,100,0.01,,,0.25,Weather View 32 v70,2013-02-22 23:10:00,
2013-02-22 18:15:00,39.0,39.0,30.01,ENE,68,4.0,10.0,100,0.01,,,0.25,Weather View 32 v70,2013-02-22 23:15:00,
2013-02-22 18:20:00,39.0,39.0,30.02,North,0,3.0,10.0,100,0.01,,,0.25,Weather View 32 v70,2013-02-22 23:20:00,
2013-02-22 18:25:00,39.0,39.0,30.02,ENE,68,3.0,10.0,100,0.01,,,0.25,Weather View 32 v70,2013-02-22 23:25:00,
2013-02-22 18:30:00,39.0,39.0,30.02,ENE,68,5.0,10.0,100,0.01,,,0.25,Weather View 32 v70,2013-02-22 23:30:00,
2013-02-22 18:35:00,39.0,39.0,30.00,ENE,68,3.0,10.0,100,0.01,,,0.25,Weather View 32 v70,2013-02-22 23:35:00,
2013-02-22 18:40:00,39.0,39.0,30.00,ENE,68,6.0,10.0,100,0.01,,,0.25,Weather View 32 v70,2013-02-22 23:40:00,
2013-02-22 18:45:00,39.0,39.0,30.00,North,0,3.0,10.0,100,0.00,,,0.25,Weather View 32 v70,2013-02-22 23:45:00,
2013-02-22 18:50:00,39.0,39.0,30.01,ENE,68,3.0,10.0,100,0.00,,,0.25,Weather View 32 v70,2013-02-22 23:50:00,
2013-02-22 18:55:00,39.0,39.0,30.01,ENE,68,5.0,9.0,100,0.00,,,0.25,Weather View 32 v70,2013-02-22 23:55:00,
2013-02-22 19:00:00,39.0,39.0,30.02,ENE,68,5.0,9.0,100,0.00,,,0.25,Weather View 32 v70,2013-02-23 00:00:00,
2013-02-22 19:05:00,39.0,39.0,30.02,North,0,4.0,9.0,100,0.00,,,0.25,Weather View 32 v70,2013-02-23 00:05:00,
2013-02-22 19:10:00,39.0,39.0,30.02,East,90,5.0,9.0,100,0.00,,,0.25,Weather View 32 v70,2013-02-23 00:10:00,
2013-02-22 19:15:00,39.0,39.0,30.02,ENE,68,4.0,9.0,100,0.00,,,0.25,Weather View 32 v70,2013-02-23 00:15:00,
2013-02-22 19:20:00,39.0,39.0,30.02,ENE,68,2.0,9.0,100,0.00,,,0.25,Weather View 32 v70,2013-02-23 00:20:00,
2013-02-22 19:25:00,39.0,39.0,30.02,ENE,68,3.0,9.0,100,0.00,,,0.25,Weather View 32 v70,2013-02-23 00:25:00,
2013-02-22 19:30:00,39.0,39.0,30.02,North,0,5.0,9.0,100,0.00,,,0.25,Weather View 32 v70,2013-02-23 00:30:00,
2013-02-22 19:35:00,39.0,39.0,30.02,ENE,68,6.0,9.0,100,0.01,,,0.26,Weather View 32 v70,2013-02-23 00:35:00,
2013-02-22 19:40:00,39.0,39.0,30.01,North,0,2.0,9.0,100,0.01,,,0.26,Weather View 32 v70,2013-02-23 00:40:00,
2013-02-22 19:45:00,39.0,39.0,30.01,East,90,5.0,9.0,100,0.01,,,0.26,Weather View 32 v70,2013-02-23 00:45:00,
2013-02-22 19:50:00,38.0,38.0,30.01,ENE,68,6.0,10.0,100,0.01,,,0.26,Weather View 32 v70,2013-02-23 00:50:00,
2013-02-22 19:55:00,38.0,38.0,30.01,ENE,68,4.0,10.0,100,0.01,,,0.26,Weather View 32 v70,2013-02-23 00:55:00,
2013-02-22 20:00:00,38.0,38.0,30.01,East,90,6.0,10.0,100,0.01,,,0.26,Weather View 32 v70,2013-02-23 01:00:00,
2013-02-22 20:05:00,38.0,38.0,30.01,ENE,68,5.0,10.0,100,0.01,,,0.26,Weather View 32 v70,2013-02-23 01:05:00,
2013-02-22 20:10:00,38.0,38.0,30.01,ENE,68,3.0,10.0,100,0.01,,,0.26,Weather View 32 v70,2013-02-23 01:10:00,
2013-02-22 20:15:00,38.0,38.0,30.01,East,90,2.0,10.0,100,0.01,,,0.26,Weather View 32 v70,2013-02-23 01:15:00,
2013-02-22 20:20:00,38.0,38.0,30.02,ENE,68,2.0,10.0,100,0.01,,,0.26,Weather View 32 v70,2013-02-23 01:20:00,
2013-02-22 20:25:00,38.0,38.0,30.01,ENE,68,5.0,10.0,100,0.01,,,0.26,Weather View 32 v70,2013-02-23 01:25:00,
2013-02-22 20:30:00,38.0,38.0,30.01,East,90,5.0,10.0,100,0.01,,,0.26,Weather View 32 v70,2013-02-23 01:30:00,
2013-02-22 20:35:00,38.0,38.0,30.01,ENE,68,0.0,10.0,100,0.00,,,0.26,Weather View 32 v70,2013-02-23 01:35:00,
2013-02-22 20:40:00,38.0,38.0,30.01,East,90,5.0,10.0,100,0.00,,,0.26,Weather View 32 v70,2013-02-23 01:40:00,
2013-02-22 20:45:00,38.0,38.0,30.01,ENE,68,5.0,10.0,100,0.00,,,0.26,Weather View 32 v70,2013-02-23 01:45:00,
2013-02-22 20:50:00,38.0,38.0,30.01,ENE,68,3.0,10.0,100,0.00,,,0.26,Weather View 32 v70,2013-02-23 01:50:00,
2013-02-22 20:55:00,38.0,38.0,30.01,North,0,5.0,8.0,100,0.00,,,0.26,Weather View 32 v70,2013-02-23 01:55:00,
2013-02-22 21:00:00,38.0,38.0,30.01,ENE,68,5.0,9.0,100,0.00,,,0.26,Weather View 32 v70,2013-02-23 02:00:00,
2013-02-22 21:05:00,38.0,38.0,30.01,ENE,68,3.0,9.0,100,0.00,,,0.26,Weather View 32 v70,2013-02-23 02:05:00,
2013-02-22 21:10:00,38.0,38.0,30.00,North,0,5.0,9.0,100,0.01,,,0.27,Weather View 32 v70,2013-02-23 02:10:00,
2013-02-22 21:15:00,38.0,38.0,30.00,ENE,68,5.0,12.0,100,0.01,,,0.27,Weather View 32 v70,2013-02-23 02:15:00,
2013-02-22 21:20:00,38.0,38.0,30.00,North,0,3.0,12.0,100,-0.26,,,0.27,Weather View 32 v70,2013-02-23 02:20:00,
2013-02-22 21:25:00,38.0,38.0,30.01,East,90,6.0,12.0,100,-0.26,,,0.27,Weather View 32 v70,2013-02-23 02:25:00,
2013-02-22 21:30:00,38.0,38.0,30.01,North,0,4.0,12.0,100,0.01,,,0.27,Weather View 32 v70,2013-02-23 02:30:00,
2013-02-22 21:35:00,38.0,38.0,30.01,North,0,5.0,12.0,100,0.01,,,0.27,Weather View 32 v70,2013-02-23 02:35:00,
2013-02-22 21:41:00,38.0,38.0,30.02,North,0,3.0,12.0,100,0.01,,,0.27,Weather View 32 v70,2013-02-23 02:41:00,
2013-02-22 21:46:00,38.0,38.0,30.02,East,90,5.0,12.0,100,0.01,,,0.27,Weather View 32 v70,2013-02-23 02:46:00,
2013-02-22 21:51:00,38.0,38.0,30.02,ENE,68,2.0,12.0,100,0.01,,,0.27,Weather View 32 v70,2013-02-23 02:51:00,
2013-02-22 21:56:00,38.0,38.0,30.02,North,0,3.0,12.0,100,0.01,,,0.27,Weather View 32 v70,2013-02-23 02:56:00,
2013-02-22 22:01:00,38.0,38.0,30.02,North,0,2.0,12.0,100,0.01,,,0.27,Weather View 32 v70,2013-02-23 03:01:00,
2013-02-22 22:06:00,38.0,38.0,30.02,ENE,68,5.0,12.0,100,0.01,,,0.27,Weather View 32 v70,2013-02-23 03:06:00,
2013-02-22 22:11:00,38.0,38.0,30.01,North,0,3.0,12.0,100,0.00,,,0.27,Weather View 32 v70,2013-02-23 03:11:00,
2013-02-22 22:16:00,38.0,38.0,30.01,North,0,3.0,10.0,100,0.01,,,0.28,Weather View 32 v70,2013-02-23 03:16:00,
2013-02-22 22:21:00,38.0,38.0,30.01,ENE,68,2.0,10.0,100,0.01,,,0.28,Weather View 32 v70,2013-02-23 03:21:00,
2013-02-22 22:26:00,38.0,38.0,30.01,East,90,3.0,10.0,100,0.01,,,0.28,Weather View 32 v70,2013-02-23 03:26:00,
2013-02-22 22:31:00,38.0,38.0,30.00,ENE,68,3.0,10.0,100,0.01,,,0.28,Weather View 32 v70,2013-02-23 03:31:00,
2013-02-22 22:36:00,38.0,38.0,30.00,ENE,68,5.0,10.0,100,0.01,,,0.28,Weather View 32 v70,2013-02-23 03:36:00,
2013-02-22 22:41:00,38.0,38.0,30.00,ENE,68,5.0,10.0,100,0.01,,,0.28,Weather View 32 v70,2013-02-23 03:41:00,
2013-02-22 22:46:00,38.0,38.0,29.99,ENE,68,6.0,10.0,100,0.01,,,0.28,Weather View 32 v70,2013-02-23 03:46:00,
2013-02-22 22:51:00,38.0,38.0,29.99,ENE,68,5.0,10.0,100,0.01,,,0.28,Weather View 32 v70,2013-02-23 03:51:00,
2013-02-22 22:56:00,38.0,38.0,29.98,ENE,68,3.0,10.0,100,0.01,,,0.28,Weather View 32 v70,2013-02-23 03:56:00,
2013-02-22 23:01:00,38.0,38.0,29.96,North,0,5.0,10.0,100,0.01,,,0.28,Weather View 32 v70,2013-02-23 04:01:00,
2013-02-22 23:06:00,38.0,38.0,29.95,ENE,68,8.0,10.0,100,0.01,,,0.28,Weather View 32 v70,2013-02-23 04:06:00,
2013-02-22 23:11:00,38.0,38.0,29.95,East,90,4.0,10.0,100,0.01,,,0.28,Weather View 32 v70,2013-02-23 04:11:00,
2013-02-22 23:16:00,38.0,38.0,29.95,East,90,5.0,10.0,100,0.01,,,0.29,Weather View 32 v70,2013-02-23 04:16:00,
2013-02-22 23:21:00,38.0,38.0,29.96,ENE,68,3.0,10.0,100,0.01,,,0.29,Weather View 32 v70,2013-02-23 04:21:00,
2013-02-22 23:26:00,38.0,38.0,29.96,ENE,68,1.0,10.0,100,0.01,,,0.29,Weather View 32 v70,2013-02-23 04:26:00,
2013-02-22 23:31:00,38.0,38.0,29.96,North,0,4.0,10.0,100,0.01,,,0.29,Weather View 32 v70,2013-02-23 04:31:00,
2013-02-22 23:36:00,38.0,38.0,29.96,North,0,3.0,10.0,100,0.01,,,0.29,Weather View 32 v70,2013-02-23 04:36:00,
2013-02-22 23:41:00,38.0,38.0,29.97,ENE,68,3.0,10.0,100,0.01,,,0.29,Weather View 32 v70,2013-02-23 04:41:00,
2013-02-22 23:46:00,38.0,38.0,29.97,ENE,68,4.0,10.0,100,0.01,,,0.29,Weather View 32 v70,2013-02-23 04:46:00,
2013-02-22 23:51:00,38.0,38.0,29.97,ENE,68,5.0,10.0,100,0.01,,,0.29,Weather View 32 v70,2013-02-23 04:51:00,
2013-02-22 23:56:00,38.0,38.0,29.97,North,0,3.0,10.0,100,0.01,,,0.29,Weather View 32 v70,2013-02-23 04:56:00,